createdAt,value
2022-10-22T00:00:23.009Z,5.16
2022-10-22T00:02:53.968Z,5.23
2022-10-22T00:05:24.398Z,5.26
2022-10-22T00:07:54.987Z,5.22
2022-10-22T00:10:25.623Z,5.08
2022-10-22T00:12:59.039Z,5.06
2022-10-22T00:15:29.656Z,5.17
2022-10-22T00:18:00.170Z,5.17
2022-10-22T00:20:30.661Z,5.09
2022-10-22T00:23:01.291Z,4.95
2022-10-22T00:25:31.960Z,5.09
2022-10-22T00:28:05.495Z,5.12
2022-10-22T00:30:35.924Z,5.02
2022-10-22T00:33:06.467Z,4.86
2022-10-22T00:35:36.895Z,4.69
2022-10-22T00:38:07.759Z,4.75
2022-10-22T00:40:38.291Z,4.80
2022-10-22T00:43:14.330Z,4.73
2022-10-22T00:45:45.205Z,4.65
2022-10-22T00:48:19.317Z,4.65
2022-10-22T00:50:55.732Z,4.74
2022-10-22T00:53:29.659Z,4.71
2022-10-22T00:56:00.113Z,4.63
2022-10-22T00:58:38.083Z,4.52
2022-10-22T01:01:12.210Z,4.51
2022-10-22T01:03:42.706Z,4.64
2022-10-22T01:06:18.412Z,4.66
2022-10-22T01:08:59.248Z,4.60
2022-10-22T01:11:38.903Z,4.75
2022-10-22T01:14:19.643Z,4.79
2022-10-22T01:16:56.418Z,4.74
2022-10-22T01:19:45.037Z,4.61
2022-10-22T01:22:23.752Z,4.48
2022-10-22T01:25:01.827Z,4.53
2022-10-22T01:27:43.024Z,4.60
2022-10-22T01:30:17.876Z,4.56
2022-10-22T01:32:52.003Z,4.45
2022-10-22T01:35:27.993Z,4.34
2022-10-22T01:38:01.815Z,4.46
2022-10-22T01:40:32.888Z,4.55
2022-10-22T01:43:05.041Z,4.49
2022-10-22T01:45:41.017Z,4.37
2022-10-22T01:48:23.655Z,4.35
2022-10-22T01:51:10.261Z,4.45
2022-10-22T01:53:51.944Z,4.42
2022-10-22T01:56:36.442Z,4.29
2022-10-22T01:59:11.339Z,4.14
2022-10-22T02:01:51.710Z,4.23
2022-10-22T02:04:25.980Z,4.30
2022-10-22T02:07:00.304Z,4.26
2022-10-22T02:09:33.273Z,4.17
2022-10-22T02:12:06.984Z,4.07
2022-10-22T02:14:40.517Z,4.22
2022-10-22T02:17:18.969Z,4.29
2022-10-22T02:19:55.251Z,4.21
2022-10-22T02:22:27.027Z,4.12
2022-10-22T02:24:58.306Z,4.10
2022-10-22T02:27:32.691Z,4.18
2022-10-22T02:30:08.123Z,4.13
2022-10-22T02:32:43.576Z,4.02
2022-10-22T02:35:20.473Z,3.89
2022-10-22T02:37:52.290Z,4.01
2022-10-22T02:40:23.371Z,4.05
2022-10-22T02:42:55.020Z,4.00
2022-10-22T02:45:25.884Z,3.87
2022-10-22T02:47:58.939Z,3.74
2022-10-22T02:50:29.517Z,3.88
2022-10-22T02:53:00.038Z,3.93
2022-10-22T02:55:30.475Z,3.88
2022-10-22T02:58:00.948Z,3.77
2022-10-22T03:00:31.748Z,3.90
2022-10-22T03:03:05.020Z,4.00
2022-10-22T03:05:35.541Z,3.92
2022-10-22T03:08:06.148Z,3.84
2022-10-22T03:10:36.682Z,3.70
2022-10-22T03:13:07.286Z,3.59
2022-10-22T03:15:37.754Z,3.76
2022-10-22T03:18:10.902Z,3.71
2022-10-22T03:20:41.343Z,3.61
2022-10-22T03:23:12.482Z,3.50
2022-10-22T03:25:45.116Z,3.60
2022-10-22T03:28:19.028Z,3.71
2022-10-22T03:30:49.497Z,3.65
2022-10-22T03:33:22.680Z,3.54
2022-10-22T03:35:53.147Z,3.43
2022-10-22T03:38:23.852Z,3.56
2022-10-22T03:40:54.323Z,3.66
2022-10-22T03:43:24.849Z,3.66
2022-10-22T03:45:55.255Z,3.59
2022-10-22T03:48:28.481Z,3.49
2022-10-22T03:50:58.892Z,3.61
2022-10-22T03:53:29.363Z,3.71
2022-10-22T03:55:59.834Z,3.70
2022-10-22T03:58:30.366Z,3.64
2022-10-22T04:01:00.859Z,3.66
2022-10-22T04:03:34.051Z,3.79
2022-10-22T04:06:05.850Z,3.80
2022-10-22T04:08:37.104Z,3.72
2022-10-22T04:11:07.804Z,3.59
2022-10-22T04:13:38.304Z,3.58
2022-10-22T04:16:12.985Z,3.69
2022-10-22T04:18:47.611Z,3.71
2022-10-22T04:21:20.278Z,3.63
2022-10-22T04:23:52.345Z,3.57
2022-10-22T04:26:23.151Z,3.63
2022-10-22T04:28:54.808Z,3.81
2022-10-22T04:31:28.547Z,3.92
2022-10-22T04:34:03.831Z,4.03
2022-10-22T04:36:34.312Z,4.17
2022-10-22T04:39:05.203Z,4.26
2022-10-22T04:41:37.818Z,4.36
2022-10-22T04:44:12.314Z,4.43
2022-10-22T04:46:46.938Z,4.50
2022-10-22T04:49:20.451Z,4.56
2022-10-22T04:51:50.873Z,4.63
2022-10-22T04:54:21.464Z,4.68
2022-10-22T04:56:51.906Z,4.75
2022-10-22T04:59:22.503Z,4.81
2022-10-22T05:01:53.180Z,4.88
2022-10-22T05:04:26.357Z,4.93
2022-10-22T05:06:56.806Z,5.00
2022-10-22T05:09:27.581Z,5.04
2022-10-22T05:11:58.079Z,5.13
2022-10-22T05:14:28.696Z,5.20
2022-10-22T05:16:59.173Z,5.27
2022-10-22T05:19:34.247Z,5.36
2022-10-22T05:22:06.176Z,5.44
2022-10-22T05:24:37.706Z,5.52
2022-10-22T05:27:08.223Z,5.60
2022-10-22T05:29:39.566Z,5.70
2022-10-22T05:32:09.977Z,5.81
2022-10-22T05:34:43.126Z,5.95
2022-10-22T05:37:13.571Z,6.08
2022-10-22T05:39:44.054Z,6.25
2022-10-22T05:42:14.614Z,6.40
2022-10-22T05:44:45.174Z,6.54
2022-10-22T05:47:15.599Z,6.66
2022-10-22T05:49:48.691Z,6.78
2022-10-22T05:52:19.102Z,6.90
2022-10-22T05:54:49.667Z,7.04
2022-10-22T05:57:20.068Z,7.19
2022-10-22T05:59:50.582Z,7.38
2022-10-22T06:02:21.147Z,7.58
2022-10-22T06:04:54.511Z,7.82
2022-10-22T06:07:25.163Z,8.06
2022-10-22T06:09:55.972Z,8.36
2022-10-22T06:12:26.507Z,8.68
2022-10-22T06:14:57.253Z,9.00
2022-10-22T06:17:27.701Z,9.34
2022-10-22T06:20:00.985Z,9.68
2022-10-22T06:22:33.024Z,10.00
2022-10-22T06:25:03.603Z,10.28
2022-10-22T06:27:34.057Z,10.48
2022-10-22T06:30:05.012Z,10.57
2022-10-22T06:32:35.414Z,10.59
2022-10-22T06:35:09.584Z,10.60
2022-10-22T06:37:40.166Z,10.59
2022-10-22T06:40:12.064Z,10.52
2022-10-22T06:42:42.634Z,10.51
2022-10-22T06:45:14.351Z,10.59
2022-10-22T06:47:44.845Z,10.73
2022-10-22T06:50:18.154Z,10.88
2022-10-22T06:52:48.895Z,11.03
2022-10-22T06:55:19.633Z,11.12
2022-10-22T06:57:50.099Z,11.14
2022-10-22T07:00:21.742Z,11.05
2022-10-22T07:02:59.000Z,10.99
2022-10-22T07:05:33.136Z,10.91
2022-10-22T07:08:03.539Z,10.88
2022-10-22T07:10:34.161Z,10.82
2022-10-22T07:13:04.589Z,10.80
2022-10-22T07:15:35.061Z,10.79
2022-10-22T07:18:05.695Z,10.81
2022-10-22T07:20:38.802Z,10.84
2022-10-22T07:23:09.268Z,10.81
2022-10-22T07:25:39.774Z,10.94
2022-10-22T07:28:10.282Z,11.01
2022-10-22T07:30:42.099Z,11.06
2022-10-22T07:33:12.517Z,11.17
2022-10-22T07:35:46.172Z,11.27
2022-10-22T07:38:16.613Z,11.41
2022-10-22T07:40:47.115Z,11.53
2022-10-22T07:43:17.795Z,11.69
2022-10-22T07:45:48.996Z,11.80
2022-10-22T07:48:22.296Z,11.88
2022-10-22T07:50:55.758Z,11.95
2022-10-22T07:53:26.381Z,12.03
2022-10-22T07:55:57.807Z,12.13
2022-10-22T07:58:28.832Z,12.24
2022-10-22T08:01:01.033Z,12.38
2022-10-22T08:03:32.364Z,12.55
2022-10-22T08:06:05.619Z,12.69
2022-10-22T08:08:36.787Z,12.82
2022-10-22T08:11:07.495Z,12.98
2022-10-22T08:13:40.482Z,13.12
2022-10-22T08:16:14.839Z,13.25
2022-10-22T08:18:45.622Z,13.38
2022-10-22T08:21:18.810Z,13.52
2022-10-22T08:23:49.263Z,13.69
2022-10-22T08:26:19.984Z,13.84
2022-10-22T08:28:50.469Z,13.97
2022-10-22T08:31:21.036Z,14.05
2022-10-22T08:33:51.484Z,14.12
2022-10-22T08:36:24.634Z,14.19
2022-10-22T08:38:55.108Z,14.24
2022-10-22T08:41:26.999Z,13.84
2022-10-22T08:44:45.658Z,12.87
2022-10-22T08:47:30.873Z,12.07
2022-10-22T08:50:02.672Z,11.70
2022-10-22T08:52:37.734Z,11.56
2022-10-22T08:55:08.747Z,11.58
2022-10-22T08:57:52.216Z,11.88
2022-10-22T09:00:27.319Z,12.15
2022-10-22T09:03:09.164Z,12.25
2022-10-22T09:08:46.626Z,12.40
2022-10-22T09:11:19.408Z,12.43
2022-10-22T09:13:51.434Z,12.53
2022-10-22T09:16:25.341Z,12.77
2022-10-22T09:19:07.415Z,13.05
2022-10-22T09:21:46.586Z,13.32
2022-10-22T09:24:29.651Z,13.67
2022-10-22T09:27:04.110Z,13.97
2022-10-22T09:29:36.869Z,14.28
2022-10-22T09:32:08.160Z,14.57
2022-10-22T09:34:38.911Z,14.85
2022-10-22T09:37:12.101Z,15.11
2022-10-22T09:39:49.077Z,15.34
2022-10-22T09:42:20.959Z,15.47
2022-10-22T09:44:57.104Z,15.00
2022-10-22T09:47:43.478Z,14.88
2022-10-22T09:50:31.566Z,14.89
2022-10-22T09:53:03.133Z,14.99
2022-10-22T09:55:36.252Z,15.16
2022-10-22T09:58:07.631Z,15.37
2022-10-22T10:00:38.164Z,15.56
2022-10-22T10:03:08.696Z,15.81
2022-10-22T10:05:41.419Z,16.03
2022-10-22T10:08:17.714Z,16.24
2022-10-22T10:10:55.560Z,16.45
2022-10-22T10:13:41.101Z,16.62
2022-10-22T10:16:15.889Z,16.77
2022-10-22T10:19:00.236Z,16.82
2022-10-22T10:21:38.149Z,16.64
2022-10-22T10:24:19.313Z,16.76
2022-10-22T10:27:01.793Z,16.80
2022-10-22T10:29:48.002Z,16.97
2022-10-22T10:32:31.008Z,17.21
2022-10-22T10:35:11.326Z,17.50
2022-10-22T10:37:46.891Z,17.82
2022-10-22T10:40:31.829Z,18.15
2022-10-22T10:43:13.183Z,18.50
2022-10-22T10:45:55.588Z,18.81
2022-10-22T10:48:46.373Z,19.13
2022-10-22T10:51:32.463Z,19.40
2022-10-22T10:54:19.429Z,19.62
2022-10-22T10:56:54.799Z,19.81
2022-10-22T10:59:39.498Z,19.95
2022-10-22T11:02:27.269Z,20.10
2022-10-22T11:05:20.807Z,20.22
2022-10-22T11:07:56.232Z,20.33
2022-10-22T11:10:33.142Z,20.39
2022-10-22T11:13:11.520Z,20.45
2022-10-22T11:15:48.803Z,20.50
2022-10-22T11:18:26.825Z,20.55
2022-10-22T11:21:12.023Z,20.58
2022-10-22T11:23:47.338Z,20.62
2022-10-22T11:26:26.783Z,20.67
2022-10-22T11:29:01.499Z,20.71
2022-10-22T11:31:35.651Z,20.76
2022-10-22T11:34:32.590Z,20.84
2022-10-22T11:37:04.605Z,20.95
2022-10-22T11:39:48.041Z,21.08
2022-10-22T11:42:23.593Z,21.20
2022-10-22T11:45:03.486Z,21.33
2022-10-22T11:47:54.899Z,21.41
2022-10-22T11:50:27.837Z,21.52
2022-10-22T11:53:08.583Z,21.65
2022-10-22T11:55:48.881Z,21.79
2022-10-22T11:58:35.637Z,21.97
2022-10-22T12:01:24.603Z,22.12
2022-10-22T12:04:24.974Z,22.23
2022-10-22T12:07:01.692Z,22.28
2022-10-22T12:09:34.580Z,22.34
2022-10-22T12:12:17.209Z,22.41
2022-10-22T12:14:59.527Z,22.45
2022-10-22T12:17:32.703Z,22.43
2022-10-22T12:20:15.161Z,22.40
2022-10-22T12:22:45.772Z,22.37
2022-10-22T12:25:23.078Z,22.31
2022-10-22T12:27:55.757Z,22.25
2022-10-22T12:30:28.253Z,22.20
2022-10-22T12:33:00.538Z,22.12
2022-10-22T12:35:35.817Z,22.03
2022-10-22T12:38:15.974Z,21.95
2022-10-22T12:40:48.718Z,21.87
2022-10-22T12:43:21.649Z,21.79
2022-10-22T12:45:54.356Z,21.71
2022-10-22T12:48:27.048Z,21.61
2022-10-22T12:51:04.051Z,21.52
2022-10-22T12:53:38.067Z,21.43
2022-10-22T12:56:13.845Z,21.37
2022-10-22T12:58:46.132Z,21.28
2022-10-22T13:01:19.033Z,21.21
2022-10-22T13:03:52.716Z,21.14
2022-10-22T13:06:31.440Z,21.09
2022-10-22T13:09:16.154Z,21.02
2022-10-22T13:11:54.237Z,20.95
2022-10-22T13:14:32.783Z,20.90
2022-10-22T13:17:13.742Z,20.86
2022-10-22T13:19:48.862Z,20.82
2022-10-22T13:22:34.710Z,20.72
2022-10-22T13:25:23.837Z,20.73
2022-10-22T13:27:57.692Z,20.70
2022-10-22T13:30:32.287Z,20.67
2022-10-22T13:33:04.827Z,20.60
2022-10-22T13:35:37.955Z,20.56
2022-10-22T13:38:18.605Z,20.51
2022-10-22T13:40:49.344Z,20.47
2022-10-22T13:43:20.656Z,20.42
2022-10-22T13:45:52.965Z,20.36
2022-10-22T13:48:25.612Z,20.30
2022-10-22T13:50:56.993Z,20.27
2022-10-22T13:53:32.056Z,20.21
2022-10-22T13:56:02.493Z,20.17
2022-10-22T13:58:33.135Z,20.14
2022-10-22T14:01:08.923Z,20.09
2022-10-22T14:03:41.376Z,20.04
2022-10-22T14:06:16.408Z,19.98
2022-10-22T14:08:54.549Z,19.92
2022-10-22T14:11:25.148Z,19.85
2022-10-22T14:13:55.734Z,19.78
2022-10-22T14:16:28.170Z,19.71
2022-10-22T14:18:59.269Z,19.63
2022-10-22T14:21:31.965Z,19.55
2022-10-22T14:24:07.135Z,19.48
2022-10-22T14:26:39.998Z,19.40
2022-10-22T14:29:11.666Z,19.32
2022-10-22T14:31:44.365Z,19.25
2022-10-22T14:34:18.191Z,19.17
2022-10-22T14:36:48.674Z,19.09
2022-10-22T14:39:21.802Z,19.02
2022-10-22T14:41:52.348Z,18.94
2022-10-22T14:44:24.303Z,18.87
2022-10-22T14:46:56.458Z,18.80
2022-10-22T14:49:27.061Z,18.73
2022-10-22T14:51:57.690Z,18.65
2022-10-22T14:54:31.157Z,18.59
2022-10-22T14:57:01.650Z,18.53
2022-10-22T14:59:32.672Z,18.48
2022-10-22T15:02:03.140Z,18.41
2022-10-22T15:04:33.704Z,18.36
2022-10-22T15:07:04.159Z,18.31
2022-10-22T15:09:37.217Z,18.27
2022-10-22T15:12:08.175Z,18.22
2022-10-22T15:14:38.760Z,18.16
2022-10-22T15:17:09.635Z,18.14
2022-10-22T15:19:40.257Z,18.09
2022-10-22T15:22:10.746Z,18.03
2022-10-22T15:24:44.996Z,17.98
2022-10-22T15:27:15.846Z,17.95
2022-10-22T15:29:46.365Z,17.91
2022-10-22T15:32:16.802Z,17.86
2022-10-22T15:34:47.365Z,17.81
2022-10-22T15:37:17.817Z,17.76
2022-10-22T15:39:50.962Z,17.69
2022-10-22T15:42:23.483Z,17.62
2022-10-22T15:45:00.673Z,17.54
2022-10-22T15:47:31.894Z,17.49
2022-10-22T15:50:02.443Z,17.44
2022-10-22T15:52:34.380Z,17.38
2022-10-22T15:55:10.772Z,17.34
2022-10-22T15:57:42.669Z,17.26
2022-10-22T16:00:15.030Z,17.22
2022-10-22T16:02:45.729Z,17.16
2022-10-22T16:05:16.346Z,17.11
2022-10-22T16:07:46.902Z,17.06
2022-10-22T16:10:20.364Z,17.01
2022-10-22T16:12:51.847Z,16.94
2022-10-22T16:15:22.485Z,16.87
2022-10-22T16:17:54.954Z,16.80
2022-10-22T16:20:25.528Z,16.74
2022-10-22T16:22:56.013Z,16.68
2022-10-22T16:25:29.240Z,16.59
2022-10-22T16:27:59.806Z,16.56
2022-10-22T16:30:30.474Z,16.50
2022-10-22T16:33:03.358Z,16.12
2022-10-22T16:35:34.972Z,15.19
2022-10-22T16:38:05.435Z,14.18
2022-10-22T16:40:38.633Z,13.29
2022-10-22T16:43:09.422Z,12.75
2022-10-22T16:45:40.041Z,12.40
2022-10-22T16:48:10.714Z,12.18
2022-10-22T16:50:42.536Z,12.05
2022-10-22T16:53:13.435Z,11.90
2022-10-22T16:55:46.595Z,11.77
2022-10-22T16:58:17.016Z,11.70
2022-10-22T17:00:47.795Z,11.60
2022-10-22T17:03:18.273Z,11.56
2022-10-22T17:05:48.971Z,11.75
2022-10-22T17:08:20.152Z,11.66
2022-10-22T17:10:53.418Z,11.37
2022-10-22T17:13:23.890Z,11.22
2022-10-22T17:15:54.519Z,11.34
2022-10-22T17:18:24.937Z,11.21
2022-10-22T17:20:56.494Z,10.86
2022-10-22T17:23:28.748Z,10.58
2022-10-22T17:26:06.639Z,10.34
2022-10-22T17:28:39.029Z,10.18
2022-10-22T17:31:12.023Z,10.12
2022-10-22T17:33:42.531Z,9.98
2022-10-22T17:36:14.662Z,9.88
2022-10-22T17:38:46.582Z,9.86
2022-10-22T17:41:21.547Z,9.82
2022-10-22T17:43:52.495Z,9.86
2022-10-22T17:46:24.897Z,9.95
2022-10-22T17:48:56.663Z,10.05
2022-10-22T17:51:29.185Z,10.12
2022-10-22T17:54:00.582Z,10.16
2022-10-22T17:56:34.186Z,10.17
2022-10-22T17:59:05.480Z,10.19
2022-10-22T18:01:40.472Z,10.16
2022-10-22T18:04:13.024Z,10.15
2022-10-22T18:06:43.618Z,10.11
2022-10-22T18:09:18.525Z,10.07
2022-10-22T18:11:54.049Z,10.02
2022-10-22T18:14:25.881Z,10.00
2022-10-22T18:16:56.795Z,10.00
2022-10-22T18:19:27.271Z,10.00
2022-10-22T18:21:57.767Z,10.04
2022-10-22T18:24:28.284Z,10.06
2022-10-22T18:27:01.586Z,10.07
2022-10-22T18:29:32.377Z,10.06
2022-10-22T18:32:09.437Z,10.06
2022-10-22T18:34:42.773Z,10.05
2022-10-22T18:37:13.372Z,10.03
2022-10-22T18:39:43.976Z,10.00
2022-10-22T18:42:17.167Z,9.99
2022-10-22T18:44:47.620Z,9.98
2022-10-22T18:47:18.175Z,9.94
2022-10-22T18:49:48.872Z,9.96
2022-10-22T18:52:19.502Z,10.19
2022-10-22T18:54:50.442Z,10.41
2022-10-22T18:57:24.680Z,10.63
2022-10-22T18:59:58.539Z,10.82
2022-10-22T19:02:30.277Z,11.04
2022-10-22T19:05:00.710Z,11.23
2022-10-22T19:07:31.981Z,11.40
2022-10-22T19:10:02.441Z,11.54
2022-10-22T19:12:35.986Z,11.67
2022-10-22T19:15:06.891Z,11.79
2022-10-22T19:17:37.836Z,11.89
2022-10-22T19:20:09.796Z,11.98
2022-10-22T19:22:40.302Z,12.04
2022-10-22T19:25:12.316Z,12.10
2022-10-22T19:27:45.973Z,12.16
2022-10-22T19:30:17.634Z,12.20
2022-10-22T19:32:49.009Z,12.25
2022-10-22T19:35:20.147Z,12.27
2022-10-22T19:37:52.287Z,12.29
2022-10-22T19:40:26.009Z,12.29
2022-10-22T19:42:59.215Z,12.30
2022-10-22T19:45:29.870Z,12.30
2022-10-22T19:48:00.363Z,12.28
2022-10-22T19:50:30.866Z,12.28
2022-10-22T19:53:04.550Z,12.27
2022-10-22T19:55:35.017Z,12.25
2022-10-22T19:58:09.145Z,12.22
2022-10-22T20:00:41.095Z,12.18
2022-10-22T20:03:11.677Z,12.13
2022-10-22T20:05:42.883Z,12.07
2022-10-22T20:08:14.735Z,12.03
2022-10-22T20:10:45.522Z,12.00
2022-10-22T20:13:18.871Z,11.95
2022-10-22T20:15:52.785Z,11.95
2022-10-22T20:18:23.626Z,11.93
2022-10-22T20:20:54.190Z,11.90
2022-10-22T20:23:24.816Z,11.89
2022-10-22T20:25:55.245Z,11.88
2022-10-22T20:28:28.737Z,11.87
2022-10-22T20:30:59.195Z,11.87
2022-10-22T20:33:29.850Z,11.86
2022-10-22T20:36:04.326Z,11.86
2022-10-22T20:41:26.343Z,11.84
2022-10-22T20:43:59.585Z,11.82
2022-10-22T20:46:32.135Z,11.82
2022-10-22T20:49:04.006Z,11.82
2022-10-22T20:51:34.951Z,11.81
2022-10-22T20:54:05.750Z,11.78
2022-10-22T20:56:36.974Z,11.78
2022-10-22T20:59:12.416Z,11.77
2022-10-22T21:01:44.726Z,11.75
2022-10-22T21:04:15.620Z,11.72
2022-10-22T21:06:46.151Z,11.72
2022-10-22T21:09:17.935Z,11.69
2022-10-22T21:11:48.830Z,11.63
2022-10-22T21:14:23.522Z,11.60
2022-10-22T21:16:54.777Z,11.57
2022-10-22T21:19:26.042Z,11.55
2022-10-22T21:21:56.782Z,11.50
2022-10-22T21:24:27.478Z,11.47
2022-10-22T21:26:58.494Z,11.44
2022-10-22T21:29:31.673Z,11.40
2022-10-22T21:32:02.360Z,11.37
2022-10-22T21:34:38.062Z,11.34
2022-10-22T21:37:09.796Z,11.08
2022-10-22T21:39:42.199Z,10.37
2022-10-22T21:42:13.235Z,9.55
2022-10-22T21:44:46.387Z,8.83
2022-10-22T21:47:16.877Z,8.26
2022-10-22T21:49:47.397Z,7.83
2022-10-22T21:52:17.867Z,7.60
2022-10-22T21:54:48.352Z,7.41
2022-10-22T21:57:18.844Z,7.28
2022-10-22T21:59:52.090Z,7.25
2022-10-22T22:02:22.590Z,7.25
2022-10-22T22:04:55.011Z,7.29
2022-10-22T22:07:25.516Z,7.33
2022-10-22T22:09:55.911Z,7.36
2022-10-22T22:12:26.384Z,7.30
2022-10-22T22:14:59.411Z,7.17
2022-10-22T22:17:29.885Z,7.08
2022-10-22T22:20:00.875Z,7.01
2022-10-22T22:22:32.183Z,6.95
2022-10-22T22:25:02.606Z,6.91
2022-10-22T22:27:33.156Z,6.90
2022-10-22T22:30:06.548Z,6.92
2022-10-22T22:32:38.180Z,6.97
2022-10-22T22:35:09.358Z,7.03
2022-10-22T22:37:40.125Z,7.09
2022-10-22T22:40:12.271Z,7.31
2022-10-22T22:42:42.820Z,7.50
2022-10-22T22:45:16.093Z,7.71
2022-10-22T22:47:46.572Z,7.92
2022-10-22T22:50:17.077Z,8.13
2022-10-22T22:52:47.633Z,8.34
2022-10-22T22:55:18.208Z,8.54
2022-10-22T22:57:48.829Z,8.70
2022-10-22T23:00:22.492Z,8.86
2022-10-22T23:02:57.561Z,9.00
2022-10-22T23:05:28.295Z,9.14
2022-10-22T23:07:58.829Z,9.23
2022-10-22T23:10:29.442Z,9.33
2022-10-22T23:12:59.894Z,9.38
2022-10-22T23:15:33.060Z,9.45
2022-10-22T23:18:03.459Z,9.49
2022-10-22T23:20:33.995Z,9.53
2022-10-22T23:23:06.267Z,9.57
2022-10-22T23:25:36.640Z,9.62
2022-10-22T23:28:07.391Z,9.64
2022-10-22T23:30:45.368Z,9.66
2022-10-22T23:33:16.584Z,9.66
2022-10-22T23:35:47.214Z,9.65
2022-10-22T23:38:17.644Z,9.66
2022-10-22T23:40:48.409Z,9.67
2022-10-22T23:43:18.840Z,9.68
2022-10-22T23:45:51.973Z,9.70
2022-10-22T23:48:24.260Z,9.70
2022-10-22T23:50:54.772Z,9.72
2022-10-22T23:53:25.210Z,9.71
2022-10-22T23:55:55.750Z,9.73
2022-10-22T23:58:26.226Z,9.71
